createdAt,value
2018-09-03T00:00:06.355Z,21.7
2018-09-03T00:01:06.310Z,21.71
2018-09-03T00:02:06.371Z,21.7
2018-09-03T00:03:06.547Z,21.68
2018-09-03T00:04:06.180Z,21.68
2018-09-03T00:05:06.438Z,21.68
2018-09-03T00:06:06.233Z,21.67
2018-09-03T00:07:06.428Z,21.67
2018-09-03T00:08:06.264Z,21.68
2018-09-03T00:09:06.156Z,21.67
2018-09-03T00:10:06.196Z,21.68
2018-09-03T00:11:06.267Z,21.7
2018-09-03T00:12:06.226Z,21.71
2018-09-03T00:13:06.235Z,21.7
2018-09-03T00:14:06.107Z,21.71
2018-09-03T00:15:06.486Z,21.68
2018-09-03T00:16:06.167Z,21.7
2018-09-03T00:17:06.435Z,21.64
2018-09-03T00:18:06.110Z,21.68
2018-09-03T00:19:06.299Z,21.68
2018-09-03T00:20:06.335Z,21.7
2018-09-03T00:21:06.339Z,21.7
2018-09-03T00:22:06.084Z,21.68
2018-09-03T00:23:06.288Z,21.68
2018-09-03T00:24:06.288Z,21.67
2018-09-03T00:25:06.368Z,21.67
2018-09-03T00:26:06.144Z,21.67
2018-09-03T00:27:06.176Z,21.7
2018-09-03T00:28:06.155Z,21.71
2018-09-03T00:29:06.271Z,21.68
2018-09-03T00:30:06.137Z,21.67
2018-09-03T00:31:06.763Z,21.67
2018-09-03T00:32:06.074Z,21.67
2018-09-03T00:33:06.389Z,21.67
2018-09-03T00:34:06.214Z,21.68
2018-09-03T00:35:06.293Z,21.7
2018-09-03T00:36:06.344Z,21.66
2018-09-03T00:37:06.256Z,21.68
2018-09-03T00:38:06.090Z,21.68
2018-09-03T00:39:06.393Z,21.68
2018-09-03T00:40:06.114Z,21.67
2018-09-03T00:41:06.126Z,21.68
2018-09-03T00:42:06.125Z,21.67
2018-09-03T00:43:06.517Z,21.67
2018-09-03T00:44:06.107Z,21.67
2018-09-03T00:45:06.361Z,21.67
2018-09-03T00:46:06.134Z,21.67
2018-09-03T00:47:06.303Z,21.67
2018-09-03T00:48:06.247Z,21.67
2018-09-03T00:49:06.290Z,21.66
2018-09-03T00:50:06.365Z,21.67
2018-09-03T00:51:06.332Z,21.68
2018-09-03T00:52:06.402Z,21.68
2018-09-03T00:53:06.223Z,21.68
2018-09-03T00:54:06.106Z,21.66
2018-09-03T00:55:06.269Z,21.66
2018-09-03T00:56:06.164Z,21.66
2018-09-03T00:57:06.135Z,21.66
2018-09-03T00:58:06.184Z,21.67
2018-09-03T00:59:06.495Z,21.67
2018-09-03T01:00:06.153Z,21.67
2018-09-03T01:01:06.207Z,21.67
2018-09-03T01:02:06.137Z,21.67
2018-09-03T01:03:06.376Z,21.67
2018-09-03T01:04:06.174Z,21.66
2018-09-03T01:05:06.186Z,21.67
2018-09-03T01:06:06.129Z,21.66
2018-09-03T01:07:06.245Z,21.68
2018-09-03T01:08:06.118Z,21.67
2018-09-03T01:09:06.317Z,21.66
2018-09-03T01:10:06.093Z,21.66
2018-09-03T01:11:06.323Z,21.66
2018-09-03T01:12:06.087Z,21.66
2018-09-03T01:13:06.260Z,21.66
2018-09-03T01:14:06.161Z,21.64
2018-09-03T01:15:06.164Z,21.67
2018-09-03T01:16:06.178Z,21.66
2018-09-03T01:17:06.233Z,21.66
2018-09-03T01:18:06.158Z,21.64
2018-09-03T01:19:06.225Z,21.63
2018-09-03T01:20:06.284Z,21.66
2018-09-03T01:21:06.240Z,21.66
2018-09-03T01:22:06.252Z,21.64
2018-09-03T01:23:06.458Z,21.66
2018-09-03T01:24:06.152Z,21.64
2018-09-03T01:25:06.215Z,21.64
2018-09-03T01:26:06.202Z,21.63
2018-09-03T01:27:06.176Z,21.67
2018-09-03T01:28:06.188Z,21.64
2018-09-03T01:29:06.257Z,21.64
2018-09-03T01:30:06.224Z,21.66
2018-09-03T01:31:06.361Z,21.64
2018-09-03T01:32:06.158Z,21.63
2018-09-03T01:33:06.066Z,21.64
2018-09-03T01:34:06.120Z,21.63
2018-09-03T01:35:06.160Z,21.61
2018-09-03T01:36:06.140Z,21.66
2018-09-03T01:37:06.737Z,21.63
2018-09-03T01:38:06.163Z,21.63
2018-09-03T01:39:06.194Z,21.64
2018-09-03T01:40:06.173Z,21.63
2018-09-03T01:41:06.299Z,21.6
2018-09-03T01:42:06.335Z,21.63
2018-09-03T01:43:06.243Z,21.64
2018-09-03T01:44:06.126Z,21.61
2018-09-03T01:45:06.388Z,21.61
2018-09-03T01:46:06.080Z,21.6
2018-09-03T01:47:06.174Z,21.63
2018-09-03T01:48:06.501Z,21.66
2018-09-03T01:49:06.310Z,21.64
2018-09-03T01:50:06.081Z,21.66
2018-09-03T01:51:06.346Z,21.64
2018-09-03T01:52:06.122Z,21.61
2018-09-03T01:53:06.321Z,21.63
2018-09-03T01:54:06.081Z,21.64
2018-09-03T01:55:06.229Z,21.61
2018-09-03T01:56:06.094Z,21.63
2018-09-03T01:57:06.387Z,21.64
2018-09-03T01:58:06.151Z,21.64
2018-09-03T01:59:06.144Z,21.61
2018-09-03T02:00:06.101Z,21.63
2018-09-03T02:01:06.382Z,21.61
2018-09-03T02:02:06.202Z,21.63
2018-09-03T02:03:06.323Z,21.64
2018-09-03T02:04:06.071Z,21.66
2018-09-03T02:05:06.278Z,21.61
2018-09-03T02:06:06.121Z,21.61
2018-09-03T02:07:06.164Z,21.63
2018-09-03T02:08:06.107Z,21.6
2018-09-03T02:09:06.242Z,21.59
2018-09-03T02:10:06.115Z,21.61
2018-09-03T02:11:06.768Z,21.6
2018-09-03T02:12:06.170Z,21.61
2018-09-03T02:13:06.258Z,21.6
2018-09-03T02:14:06.145Z,21.61
2018-09-03T02:15:06.170Z,21.59
2018-09-03T02:16:06.046Z,21.61
2018-09-03T02:17:06.153Z,21.6
2018-09-03T02:18:06.303Z,21.6
2018-09-03T02:19:06.703Z,21.6
2018-09-03T02:20:06.387Z,21.61
2018-09-03T02:21:06.231Z,21.61
2018-09-03T02:22:06.118Z,21.63
2018-09-03T02:23:06.201Z,21.63
2018-09-03T02:24:06.034Z,21.61
2018-09-03T02:25:06.239Z,21.61
2018-09-03T02:26:06.069Z,21.61
2018-09-03T02:27:06.127Z,21.61
2018-09-03T02:28:06.315Z,21.6
2018-09-03T02:29:06.104Z,21.59
2018-09-03T02:30:06.159Z,21.61
2018-09-03T02:31:06.187Z,21.61
2018-09-03T02:32:06.088Z,21.6
2018-09-03T02:33:06.232Z,21.61
2018-09-03T02:34:06.050Z,21.61
2018-09-03T02:35:06.158Z,21.61
2018-09-03T02:36:06.090Z,21.61
2018-09-03T02:37:06.197Z,21.61
2018-09-03T02:38:06.069Z,21.6
2018-09-03T02:39:06.306Z,21.6
2018-09-03T02:40:06.122Z,21.61
2018-09-03T02:41:06.460Z,21.61
2018-09-03T02:42:06.237Z,21.59
2018-09-03T02:43:06.534Z,21.61
2018-09-03T02:44:06.143Z,21.6
2018-09-03T02:45:06.390Z,21.61
2018-09-03T02:46:06.054Z,21.59
2018-09-03T02:47:06.309Z,21.6
2018-09-03T02:48:06.083Z,21.61
2018-09-03T02:49:06.404Z,21.59
2018-09-03T02:50:06.090Z,21.59
2018-09-03T02:51:06.190Z,21.61
2018-09-03T02:52:06.084Z,21.59
2018-09-03T02:53:06.082Z,21.6
2018-09-03T02:54:06.132Z,21.6
2018-09-03T02:55:06.341Z,21.6
2018-09-03T02:56:06.346Z,21.6
2018-09-03T02:57:06.313Z,21.6
2018-09-03T02:58:06.090Z,21.61
2018-09-03T02:59:06.261Z,21.59
2018-09-03T03:00:06.108Z,21.59
2018-09-03T03:01:06.500Z,21.57
2018-09-03T03:02:06.139Z,21.57
2018-09-03T03:03:06.303Z,21.56
2018-09-03T03:04:06.136Z,21.57
2018-09-03T03:05:06.203Z,21.6
2018-09-03T03:06:06.287Z,21.59
2018-09-03T03:07:06.284Z,21.6
2018-09-03T03:08:06.212Z,21.6
2018-09-03T03:09:06.085Z,21.6
2018-09-03T03:10:06.093Z,21.61
2018-09-03T03:11:06.300Z,21.59
2018-09-03T03:12:06.124Z,21.59
2018-09-03T03:13:06.659Z,21.59
2018-09-03T03:14:06.111Z,21.61
2018-09-03T03:15:06.401Z,21.6
2018-09-03T03:16:06.115Z,21.6
2018-09-03T03:17:06.527Z,21.57
2018-09-03T03:18:06.145Z,21.57
2018-09-03T03:19:06.281Z,21.57
2018-09-03T03:20:06.044Z,21.59
2018-09-03T03:21:06.096Z,21.56
2018-09-03T03:22:06.095Z,21.57
2018-09-03T03:23:06.129Z,21.57
2018-09-03T03:24:06.421Z,21.57
2018-09-03T03:25:06.109Z,21.59
2018-09-03T03:26:06.565Z,21.59
2018-09-03T03:27:06.585Z,21.57
2018-09-03T03:28:06.383Z,21.56
2018-09-03T03:29:06.147Z,21.59
2018-09-03T03:30:06.179Z,21.59
2018-09-03T03:31:06.138Z,21.57
2018-09-03T03:32:06.066Z,21.57
2018-09-03T03:33:06.265Z,21.59
2018-09-03T03:34:06.077Z,21.57
2018-09-03T03:35:06.258Z,21.56
2018-09-03T03:36:06.071Z,21.56
2018-09-03T03:37:06.221Z,21.59
2018-09-03T03:38:06.111Z,21.57
2018-09-03T03:39:06.126Z,21.59
2018-09-03T03:40:06.200Z,21.56
2018-09-03T03:41:06.310Z,21.57
2018-09-03T03:42:06.280Z,21.57
2018-09-03T03:43:06.365Z,21.56
2018-09-03T03:44:06.068Z,21.59
2018-09-03T03:45:06.243Z,21.59
2018-09-03T03:46:06.188Z,21.6
2018-09-03T03:47:06.211Z,21.57
2018-09-03T03:48:06.044Z,21.56
2018-09-03T03:49:06.212Z,21.56
2018-09-03T03:50:06.252Z,21.57
2018-09-03T03:51:06.141Z,21.57
2018-09-03T03:52:06.118Z,21.56
2018-09-03T03:53:06.245Z,21.56
2018-09-03T03:54:06.216Z,21.59
2018-09-03T03:55:07.139Z,21.57
2018-09-03T03:56:06.370Z,21.57
2018-09-03T03:57:06.171Z,21.57
2018-09-03T03:58:06.027Z,21.59
2018-09-03T03:59:06.137Z,21.59
2018-09-03T04:00:06.065Z,21.56
2018-09-03T04:01:06.172Z,21.56
2018-09-03T04:02:06.122Z,21.59
2018-09-03T04:03:06.299Z,21.57
2018-09-03T04:04:06.093Z,21.56
2018-09-03T04:05:06.123Z,21.57
2018-09-03T04:06:06.068Z,21.59
2018-09-03T04:07:06.132Z,21.59
2018-09-03T04:08:06.149Z,21.54
2018-09-03T04:09:06.221Z,21.56
2018-09-03T04:10:06.079Z,21.57
2018-09-03T04:11:06.155Z,21.57
2018-09-03T04:12:06.047Z,21.57
2018-09-03T04:13:06.177Z,21.57
2018-09-03T04:14:06.011Z,21.54
2018-09-03T04:15:06.256Z,21.56
2018-09-03T04:16:06.218Z,21.54
2018-09-03T04:17:06.208Z,21.57
2018-09-03T04:18:06.081Z,21.59
2018-09-03T04:19:06.465Z,21.56
2018-09-03T04:20:06.120Z,21.56
2018-09-03T04:21:06.206Z,21.56
2018-09-03T04:22:06.076Z,21.59
2018-09-03T04:23:06.980Z,21.54
2018-09-03T04:24:06.373Z,21.56
2018-09-03T04:25:06.345Z,21.56
2018-09-03T04:26:06.017Z,21.54
2018-09-03T04:27:06.229Z,21.56
2018-09-03T04:28:06.086Z,21.57
2018-09-03T04:29:06.191Z,21.56
2018-09-03T04:30:06.159Z,21.54
2018-09-03T04:31:06.183Z,21.56
2018-09-03T04:32:06.178Z,21.56
2018-09-03T04:33:06.229Z,21.57
2018-09-03T04:34:06.287Z,21.57
2018-09-03T04:35:06.293Z,21.56
2018-09-03T04:36:06.152Z,21.57
2018-09-03T04:37:06.308Z,21.57
2018-09-03T04:38:06.106Z,21.54
2018-09-03T04:39:06.350Z,21.56
2018-09-03T04:40:06.054Z,21.53
2018-09-03T04:41:06.264Z,21.54
2018-09-03T04:42:06.056Z,21.54
2018-09-03T04:43:06.191Z,21.56
2018-09-03T04:44:06.254Z,21.56
2018-09-03T04:45:06.238Z,21.56
2018-09-03T04:46:06.266Z,21.56
2018-09-03T04:47:06.287Z,21.54
2018-09-03T04:48:07.160Z,21.57
2018-09-03T04:49:06.254Z,21.54
2018-09-03T04:50:06.042Z,21.57
2018-09-03T04:51:06.247Z,21.57
2018-09-03T04:52:06.014Z,21.57
2018-09-03T04:53:06.365Z,21.56
2018-09-03T04:54:06.277Z,21.57
2018-09-03T04:55:06.868Z,21.56
2018-09-03T04:56:06.123Z,21.54
2018-09-03T04:57:06.309Z,21.53
2018-09-03T04:58:06.047Z,21.53
2018-09-03T04:59:06.512Z,21.56
2018-09-03T05:00:06.008Z,21.57
2018-09-03T05:01:06.206Z,21.56
2018-09-03T05:02:06.059Z,21.54
2018-09-03T05:03:06.264Z,21.54
2018-09-03T05:04:06.080Z,21.57
2018-09-03T05:05:06.890Z,21.56
2018-09-03T05:06:06.321Z,21.56
2018-09-03T05:07:06.220Z,21.56
2018-09-03T05:08:06.161Z,21.56
2018-09-03T05:09:06.271Z,21.54
2018-09-03T05:10:06.335Z,21.54
2018-09-03T05:11:06.287Z,21.53
2018-09-03T05:12:06.071Z,21.53
2018-09-03T05:13:06.147Z,21.54
2018-09-03T05:14:06.063Z,21.54
2018-09-03T05:15:06.442Z,21.56
2018-09-03T05:16:06.052Z,21.57
2018-09-03T05:17:06.284Z,21.54
2018-09-03T05:18:06.085Z,21.54
2018-09-03T05:19:06.364Z,21.53
2018-09-03T05:20:06.316Z,21.54
2018-09-03T05:21:06.319Z,21.54
2018-09-03T05:22:06.390Z,21.54
2018-09-03T05:23:06.228Z,21.53
2018-09-03T05:24:06.069Z,21.57
2018-09-03T05:25:06.290Z,21.54
2018-09-03T05:26:06.026Z,21.54
2018-09-03T05:27:06.319Z,21.51
2018-09-03T05:28:06.373Z,21.54
2018-09-03T05:29:06.179Z,21.56
2018-09-03T05:30:06.145Z,21.54
2018-09-03T05:31:06.655Z,21.54
2018-09-03T05:32:06.084Z,21.54
2018-09-03T05:33:06.077Z,21.54
2018-09-03T05:34:06.059Z,21.54
2018-09-03T05:35:06.166Z,21.54
2018-09-03T05:36:06.026Z,21.5
2018-09-03T05:37:06.121Z,21.53
2018-09-03T05:38:06.013Z,21.54
2018-09-03T05:39:06.313Z,21.54
2018-09-03T05:40:06.064Z,21.53
2018-09-03T05:41:06.228Z,21.54
2018-09-03T05:42:06.190Z,21.51
2018-09-03T05:43:07.094Z,21.54
2018-09-03T05:44:07.103Z,21.56
2018-09-03T05:45:06.822Z,21.54
2018-09-03T05:46:06.195Z,21.53
2018-09-03T05:47:06.069Z,21.53
2018-09-03T05:48:06.069Z,21.53
2018-09-03T05:49:06.489Z,21.54
2018-09-03T05:50:06.719Z,21.51
2018-09-03T05:51:06.225Z,21.54
2018-09-03T05:52:06.133Z,21.53
2018-09-03T05:53:06.463Z,21.54
2018-09-03T05:54:06.067Z,21.53
2018-09-03T05:55:06.218Z,21.56
2018-09-03T05:56:05.984Z,21.53
2018-09-03T05:57:06.286Z,21.54
2018-09-03T05:58:06.059Z,21.54
2018-09-03T05:59:07.142Z,21.53
2018-09-03T06:00:06.173Z,21.54
2018-09-03T06:01:06.392Z,21.56
2018-09-03T06:02:06.037Z,21.54
2018-09-03T06:03:06.430Z,21.54
2018-09-03T06:04:06.050Z,21.54
2018-09-03T06:05:06.223Z,21.54
2018-09-03T06:06:06.276Z,21.53
2018-09-03T06:07:06.149Z,21.53
2018-09-03T06:08:06.011Z,21.54
2018-09-03T06:09:06.168Z,21.56
2018-09-03T06:10:06.098Z,21.56
2018-09-03T06:11:06.756Z,21.54
2018-09-03T06:12:06.038Z,21.54
2018-09-03T06:13:06.232Z,21.56
2018-09-03T06:14:06.036Z,21.54
2018-09-03T06:15:06.251Z,21.54
2018-09-03T06:16:06.157Z,21.57
2018-09-03T06:17:06.321Z,21.54
2018-09-03T06:18:06.172Z,21.56
2018-09-03T06:19:06.108Z,21.53
2018-09-03T06:20:06.235Z,21.53
2018-09-03T06:21:06.303Z,21.53
2018-09-03T06:22:05.999Z,21.56
2018-09-03T06:23:06.316Z,21.53
2018-09-03T06:24:06.502Z,21.54
2018-09-03T06:25:06.300Z,21.54
2018-09-03T06:26:06.130Z,21.53
2018-09-03T06:27:06.140Z,21.53
2018-09-03T06:28:06.012Z,21.51
2018-09-03T06:29:06.223Z,21.56
2018-09-03T06:30:05.979Z,21.53
2018-09-03T06:31:06.326Z,21.56
2018-09-03T06:32:06.110Z,21.56
2018-09-03T06:33:06.053Z,21.56
2018-09-03T06:34:06.327Z,21.53
2018-09-03T06:35:06.169Z,21.53
2018-09-03T06:36:06.261Z,21.56
2018-09-03T06:37:06.205Z,21.53
2018-09-03T06:38:06.500Z,21.53
2018-09-03T06:39:06.746Z,21.54
2018-09-03T06:40:06.127Z,21.51
2018-09-03T06:41:06.353Z,21.51
2018-09-03T06:42:06.281Z,21.54
2018-09-03T06:43:06.300Z,21.51
2018-09-03T06:44:06.082Z,21.54
2018-09-03T06:45:06.127Z,21.53
2018-09-03T06:46:06.025Z,21.53
2018-09-03T06:47:06.220Z,21.53
2018-09-03T06:48:06.053Z,21.53
2018-09-03T06:49:09.181Z,21.53
2018-09-03T06:50:06.067Z,21.54
2018-09-03T06:51:06.169Z,21.54
2018-09-03T06:52:06.027Z,21.54
2018-09-03T06:53:06.299Z,21.51
2018-09-03T06:54:06.030Z,21.54
2018-09-03T06:55:06.073Z,21.54
2018-09-03T06:56:06.264Z,21.53
2018-09-03T06:57:06.088Z,21.53
2018-09-03T06:58:05.991Z,21.51
2018-09-03T06:59:06.052Z,21.54
2018-09-03T07:00:06.135Z,21.51
2018-09-03T07:01:06.195Z,21.53
2018-09-03T07:02:06.048Z,21.53
2018-09-03T07:03:06.019Z,21.53
2018-09-03T07:04:06.096Z,21.53
2018-09-03T07:05:06.514Z,21.54
2018-09-03T07:06:06.139Z,21.51
2018-09-03T07:07:06.257Z,21.54
2018-09-03T07:08:06.143Z,21.53
2018-09-03T07:09:06.363Z,21.53
2018-09-03T07:10:06.050Z,21.53
2018-09-03T07:11:06.318Z,21.54
2018-09-03T07:12:06.117Z,21.53
2018-09-03T07:13:06.103Z,21.53
2018-09-03T07:14:06.248Z,21.53
2018-09-03T07:15:06.245Z,21.53
2018-09-03T07:16:05.994Z,21.53
2018-09-03T07:17:06.074Z,21.53
2018-09-03T07:18:06.143Z,21.54
2018-09-03T07:19:06.090Z,21.56
2018-09-03T07:20:06.096Z,21.51
2018-09-03T07:21:06.165Z,21.5
2018-09-03T07:22:06.006Z,21.5
2018-09-03T07:23:06.258Z,21.5
2018-09-03T07:24:06.182Z,21.54
2018-09-03T07:25:06.080Z,21.53
2018-09-03T07:26:06.432Z,21.53
2018-09-03T07:27:06.308Z,21.53
2018-09-03T07:28:06.028Z,21.57
2018-09-03T07:29:06.315Z,21.56
2018-09-03T07:30:05.964Z,21.54
2018-09-03T07:31:06.445Z,21.56
2018-09-03T07:32:06.102Z,21.59
2018-09-03T07:33:06.346Z,21.6
2018-09-03T07:34:06.194Z,21.61
2018-09-03T07:35:06.512Z,21.6
2018-09-03T07:36:06.436Z,21.6
2018-09-03T07:37:06.192Z,21.64
2018-09-03T07:38:06.041Z,21.64
2018-09-03T07:39:06.499Z,21.66
2018-09-03T07:40:06.061Z,21.67
2018-09-03T07:41:06.445Z,21.68
2018-09-03T07:42:06.052Z,21.68
2018-09-03T07:43:06.125Z,21.71
2018-09-03T07:44:06.570Z,21.71
2018-09-03T07:45:06.134Z,21.73
2018-09-03T07:46:06.111Z,21.71
2018-09-03T07:47:06.222Z,21.71
2018-09-03T07:48:06.045Z,21.71
2018-09-03T07:49:06.106Z,21.73
2018-09-03T07:50:06.013Z,21.73
2018-09-03T07:51:06.794Z,21.73
2018-09-03T07:52:06.073Z,21.74
2018-09-03T07:53:06.294Z,21.73
2018-09-03T07:54:06.229Z,21.7
2018-09-03T07:55:06.406Z,21.71
2018-09-03T07:56:06.040Z,21.71
2018-09-03T07:57:06.392Z,21.71
2018-09-03T07:58:06.199Z,21.71
2018-09-03T07:59:06.238Z,21.7
2018-09-03T08:00:06.099Z,21.71
2018-09-03T08:01:06.880Z,21.71
2018-09-03T08:02:06.127Z,21.71
2018-09-03T08:03:06.164Z,21.7
2018-09-03T08:04:06.145Z,21.71
2018-09-03T08:05:06.267Z,21.71
2018-09-03T08:06:06.007Z,21.71
2018-09-03T08:07:06.207Z,21.71
2018-09-03T08:08:06.174Z,21.7
2018-09-03T08:09:06.203Z,21.7
2018-09-03T08:10:06.171Z,21.7
2018-09-03T08:11:06.449Z,21.68
2018-09-03T08:12:05.963Z,21.68
2018-09-03T08:13:06.393Z,21.68
2018-09-03T08:14:06.137Z,21.68
2018-09-03T08:15:06.088Z,21.67
2018-09-03T08:16:06.030Z,21.68
2018-09-03T08:17:06.176Z,21.68
2018-09-03T08:18:06.019Z,21.67
2018-09-03T08:19:06.293Z,21.67
2018-09-03T08:20:06.913Z,21.66
2018-09-03T08:21:06.157Z,21.68
2018-09-03T08:22:06.056Z,21.67
2018-09-03T08:23:06.252Z,21.67
2018-09-03T08:24:06.027Z,21.66
2018-09-03T08:25:06.251Z,21.64
2018-09-03T08:26:06.068Z,21.66
2018-09-03T08:27:06.274Z,21.67
2018-09-03T08:28:06.006Z,21.66
2018-09-03T08:29:05.968Z,21.66
2018-09-03T08:30:06.483Z,21.64
2018-09-03T08:31:06.122Z,21.63
2018-09-03T08:32:06.294Z,21.64
2018-09-03T08:33:06.246Z,21.63
2018-09-03T08:34:06.066Z,21.66
2018-09-03T08:35:06.152Z,21.63
2018-09-03T08:36:06.136Z,21.66
2018-09-03T08:37:06.348Z,21.64
2018-09-03T08:38:06.278Z,21.63
2018-09-03T08:39:06.002Z,21.63
2018-09-03T08:40:06.286Z,21.61
2018-09-03T08:41:06.481Z,21.64
2018-09-03T08:42:06.202Z,21.64
2018-09-03T08:43:06.031Z,21.66
2018-09-03T08:44:06.174Z,21.61
2018-09-03T08:45:06.278Z,21.63
2018-09-03T08:46:06.010Z,21.64
2018-09-03T08:47:06.038Z,21.63
2018-09-03T08:48:06.021Z,21.6
2018-09-03T08:49:06.390Z,21.66
2018-09-03T08:50:06.052Z,21.61
2018-09-03T08:51:06.250Z,21.61
2018-09-03T08:52:06.275Z,21.64
2018-09-03T08:53:06.141Z,21.61
2018-09-03T08:54:06.284Z,21.63
2018-09-03T08:55:06.118Z,21.63
2018-09-03T08:56:06.105Z,21.64
2018-09-03T08:57:06.308Z,21.61
2018-09-03T08:58:06.044Z,21.61
2018-09-03T08:59:06.251Z,21.61
2018-09-03T09:00:05.966Z,21.63
2018-09-03T09:01:06.191Z,21.63
2018-09-03T09:02:06.098Z,21.61
2018-09-03T09:03:06.226Z,21.63
2018-09-03T09:04:06.022Z,21.61
2018-09-03T09:05:06.171Z,21.61
2018-09-03T09:06:06.036Z,21.6
2018-09-03T09:07:06.179Z,21.61
2018-09-03T09:08:06.074Z,21.61
2018-09-03T09:09:06.185Z,21.61
2018-09-03T09:10:06.154Z,21.63
2018-09-03T09:11:06.189Z,21.63
2018-09-03T09:12:06.059Z,21.64
2018-09-03T09:13:06.042Z,21.61
2018-09-03T09:14:06.027Z,21.61
2018-09-03T09:15:06.308Z,21.6
2018-09-03T09:16:05.988Z,21.6
2018-09-03T09:17:06.386Z,21.64
2018-09-03T09:18:05.937Z,21.61
2018-09-03T09:19:06.212Z,21.63
2018-09-03T09:20:06.033Z,21.64
2018-09-03T09:21:06.275Z,21.61
2018-09-03T09:22:06.040Z,21.6
2018-09-03T09:23:06.138Z,21.61
2018-09-03T09:24:05.943Z,21.63
2018-09-03T09:25:06.782Z,21.63
2018-09-03T09:26:06.094Z,21.61
2018-09-03T09:27:06.235Z,21.61
2018-09-03T09:28:06.067Z,21.6
2018-09-03T09:29:06.197Z,21.63
2018-09-03T09:30:05.982Z,21.6
2018-09-03T09:31:06.166Z,21.63
2018-09-03T09:32:06.519Z,21.61
2018-09-03T09:33:06.212Z,21.6
2018-09-03T09:34:06.014Z,21.61
2018-09-03T09:35:06.183Z,21.6
2018-09-03T09:36:06.077Z,21.6
2018-09-03T09:37:06.234Z,21.6
2018-09-03T09:38:06.150Z,21.61
2018-09-03T09:39:06.299Z,21.6
2018-09-03T09:40:06.093Z,21.6
2018-09-03T09:41:06.104Z,21.6
2018-09-03T09:42:05.950Z,21.61
2018-09-03T09:43:07.060Z,21.61
2018-09-03T09:44:06.089Z,21.61
2018-09-03T09:45:06.077Z,21.61
2018-09-03T09:46:06.029Z,21.63
2018-09-03T09:47:06.098Z,21.61
2018-09-03T09:48:05.996Z,21.6
2018-09-03T09:49:06.153Z,21.61
2018-09-03T09:50:06.022Z,21.61
2018-09-03T09:51:06.238Z,21.61
2018-09-03T09:52:06.027Z,21.61
2018-09-03T09:53:06.087Z,21.61
2018-09-03T09:54:05.929Z,21.61
2018-09-03T09:55:06.106Z,21.6
2018-09-03T09:56:06.207Z,21.6
2018-09-03T09:57:06.234Z,21.59
2018-09-03T09:58:05.942Z,21.6
2018-09-03T09:59:06.107Z,21.6
2018-09-03T10:00:06.550Z,21.6
2018-09-03T10:01:06.146Z,21.59
2018-09-03T10:02:06.145Z,21.6
2018-09-03T10:03:06.385Z,21.6
2018-09-03T10:04:06.044Z,21.6
2018-09-03T10:05:06.351Z,21.6
2018-09-03T10:06:06.060Z,21.59
2018-09-03T10:07:06.290Z,21.59
2018-09-03T10:08:06.015Z,21.6
2018-09-03T10:09:06.103Z,21.59
2018-09-03T10:10:06.234Z,21.61
2018-09-03T10:11:06.238Z,21.59
2018-09-03T10:12:06.244Z,21.6
2018-09-03T10:13:06.044Z,21.59
2018-09-03T10:14:06.961Z,21.6
2018-09-03T10:15:06.188Z,21.6
2018-09-03T10:16:06.094Z,21.6
2018-09-03T10:17:06.782Z,21.57
2018-09-03T10:18:05.978Z,21.6
2018-09-03T10:19:06.058Z,21.59
2018-09-03T10:20:05.968Z,21.57
2018-09-03T10:21:06.509Z,21.6
2018-09-03T10:22:06.037Z,21.6
2018-09-03T10:23:06.291Z,21.63
2018-09-03T10:24:05.973Z,21.59
2018-09-03T10:25:06.091Z,21.59
2018-09-03T10:26:06.004Z,21.59
2018-09-03T10:27:06.139Z,21.57
2018-09-03T10:28:06.156Z,21.59
2018-09-03T10:29:06.198Z,21.59
2018-09-03T10:30:06.003Z,21.59
2018-09-03T10:31:06.141Z,21.59
2018-09-03T10:32:06.095Z,21.59
2018-09-03T10:33:06.029Z,21.61
2018-09-03T10:34:06.028Z,21.59
2018-09-03T10:35:06.147Z,21.57
2018-09-03T10:36:06.031Z,21.59
2018-09-03T10:37:06.290Z,21.59
2018-09-03T10:38:06.657Z,21.57
2018-09-03T10:39:06.280Z,21.57
2018-09-03T10:40:06.069Z,21.59
2018-09-03T10:41:06.121Z,21.56
2018-09-03T10:42:06.441Z,21.57
2018-09-03T10:43:06.195Z,21.59
2018-09-03T10:44:06.127Z,21.57
2018-09-03T10:45:06.513Z,21.59
2018-09-03T10:46:05.938Z,21.59
2018-09-03T10:47:07.315Z,21.57
2018-09-03T10:48:06.042Z,21.59
2018-09-03T10:49:05.956Z,21.6
2018-09-03T10:50:05.962Z,21.57
2018-09-03T10:51:06.353Z,21.57
2018-09-03T10:52:06.055Z,21.6
2018-09-03T10:53:06.082Z,21.57
2018-09-03T10:54:06.011Z,21.57
2018-09-03T10:55:06.145Z,21.59
2018-09-03T10:56:06.544Z,21.57
2018-09-03T10:57:06.517Z,21.56
2018-09-03T10:58:06.026Z,21.57
2018-09-03T10:59:06.082Z,21.57
2018-09-03T11:00:05.967Z,21.59
2018-09-03T11:01:06.168Z,21.57
2018-09-03T11:02:05.965Z,21.56
2018-09-03T11:03:06.193Z,21.56
2018-09-03T11:04:06.009Z,21.59
2018-09-03T11:05:06.394Z,21.59
2018-09-03T11:06:06.083Z,21.6
2018-09-03T11:07:06.216Z,21.57
2018-09-03T11:08:05.983Z,21.54
2018-09-03T11:09:06.227Z,21.56
2018-09-03T11:10:05.952Z,21.54
2018-09-03T11:11:06.174Z,21.54
2018-09-03T11:12:05.989Z,21.57
2018-09-03T11:13:06.572Z,21.54
2018-09-03T11:14:06.449Z,21.57
2018-09-03T11:15:06.220Z,21.57
2018-09-03T11:16:06.084Z,21.56
2018-09-03T11:17:06.075Z,21.53
2018-09-03T11:18:06.061Z,21.53
2018-09-03T11:19:05.992Z,21.54
2018-09-03T11:20:07.171Z,21.54
2018-09-03T11:21:06.520Z,21.53
2018-09-03T11:22:06.079Z,21.54
2018-09-03T11:23:06.270Z,21.53
2018-09-03T11:24:06.313Z,21.53
2018-09-03T11:25:06.181Z,21.56
2018-09-03T11:26:05.975Z,21.57
2018-09-03T11:27:06.078Z,21.57
2018-09-03T11:28:05.961Z,21.6
2018-09-03T11:29:06.206Z,21.61
2018-09-03T11:30:05.955Z,21.61
2018-09-03T11:31:06.148Z,21.6
2018-09-03T11:32:06.029Z,21.64
2018-09-03T11:33:06.214Z,21.64
2018-09-03T11:34:06.115Z,21.64
2018-09-03T11:35:06.599Z,21.64
2018-09-03T11:36:06.074Z,21.63
2018-09-03T11:37:06.244Z,21.61
2018-09-03T11:38:05.945Z,21.66
2018-09-03T11:39:06.148Z,21.68
2018-09-03T11:40:05.988Z,21.67
2018-09-03T11:41:06.300Z,21.7
2018-09-03T11:42:06.037Z,21.7
2018-09-03T11:43:06.236Z,21.68
2018-09-03T11:44:05.996Z,21.73
2018-09-03T11:45:06.314Z,21.77
2018-09-03T11:46:06.023Z,21.73
2018-09-03T11:47:06.820Z,21.71
2018-09-03T11:48:06.005Z,21.73
2018-09-03T11:49:06.391Z,21.71
2018-09-03T11:50:05.970Z,21.71
2018-09-03T11:51:06.063Z,21.71
2018-09-03T11:52:06.110Z,21.73
2018-09-03T11:53:06.117Z,21.74
2018-09-03T11:54:06.203Z,21.77
2018-09-03T11:55:06.169Z,21.77
2018-09-03T11:56:06.100Z,21.77
2018-09-03T11:57:06.115Z,21.76
2018-09-03T11:58:05.940Z,21.78
2018-09-03T11:59:06.163Z,21.8
2018-09-03T12:00:06.146Z,21.81
2018-09-03T12:01:06.240Z,21.81
2018-09-03T12:02:06.875Z,21.82
2018-09-03T12:03:06.107Z,21.8
2018-09-03T12:04:05.999Z,21.81
2018-09-03T12:05:06.401Z,21.84
2018-09-03T12:06:06.212Z,21.8
2018-09-03T12:07:06.217Z,21.8
2018-09-03T12:08:05.972Z,21.78
2018-09-03T12:09:06.165Z,21.76
2018-09-03T12:10:06.023Z,21.77
2018-09-03T12:11:06.032Z,21.78
2018-09-03T12:12:06.007Z,21.78
2018-09-03T12:13:06.274Z,21.8
2018-09-03T12:14:05.937Z,21.82
2018-09-03T12:15:06.312Z,21.84
2018-09-03T12:16:06.130Z,21.82
2018-09-03T12:17:06.151Z,21.85
2018-09-03T12:18:06.159Z,21.82
2018-09-03T12:19:06.118Z,21.81
2018-09-03T12:20:06.349Z,21.84
2018-09-03T12:21:06.704Z,21.87
2018-09-03T12:22:06.056Z,21.88
2018-09-03T12:23:06.203Z,21.85
2018-09-03T12:24:05.956Z,21.85
2018-09-03T12:25:06.056Z,21.87
2018-09-03T12:26:05.957Z,21.87
2018-09-03T12:27:06.118Z,21.85
2018-09-03T12:28:06.021Z,21.84
2018-09-03T12:29:06.329Z,21.84
2018-09-03T12:30:05.936Z,21.82
2018-09-03T12:31:05.950Z,21.85
2018-09-03T12:32:06.016Z,21.87
2018-09-03T12:33:05.929Z,21.82
2018-09-03T12:34:05.954Z,21.81
2018-09-03T12:35:06.108Z,21.84
2018-09-03T12:36:05.919Z,21.82
2018-09-03T12:37:06.747Z,21.82
2018-09-03T12:38:05.941Z,21.82
2018-09-03T12:39:06.097Z,21.84
2018-09-03T12:40:05.928Z,21.81
2018-09-03T12:41:06.201Z,21.82
2018-09-03T12:42:06.008Z,21.81
2018-09-03T12:43:06.013Z,21.82
2018-09-03T12:44:05.963Z,21.8
2018-09-03T12:45:06.133Z,21.81
2018-09-03T12:46:06.284Z,21.81
2018-09-03T12:47:06.123Z,21.8
2018-09-03T12:48:05.954Z,21.8
2018-09-03T12:49:06.149Z,21.78
2018-09-03T12:50:06.503Z,21.8
2018-09-03T12:51:06.619Z,21.81
2018-09-03T12:52:06.155Z,21.78
2018-09-03T12:53:05.970Z,21.81
2018-09-03T12:54:05.997Z,21.77
2018-09-03T12:55:06.044Z,21.78